sensor_id;sensor_type;location;lat;lon;timestamp;P1;durP1;ratioP1;P2;durP2;ratioP2
40555;SDS011;26250;45.422;11.100;2023-04-25T00:00:14;1.27;;;0.95;;
40555;SDS011;26250;45.422;11.100;2023-04-25T00:02:41;1.10;;;1.00;;
40555;SDS011;26250;45.422;11.100;2023-04-25T00:05:09;1.35;;;0.95;;
40555;SDS011;26250;45.422;11.100;2023-04-25T00:07:37;1.42;;;1.33;;
40555;SDS011;26250;45.422;11.100;2023-04-25T00:10:04;2.80;;;1.52;;
40555;SDS011;26250;45.422;11.100;2023-04-25T00:12:32;1.33;;;0.90;;
40555;SDS011;26250;45.422;11.100;2023-04-25T00:15:01;1.40;;;1.25;;
40555;SDS011;26250;45.422;11.100;2023-04-25T00:17:29;2.15;;;1.25;;
40555;SDS011;26250;45.422;11.100;2023-04-25T00:20:00;0.75;;;0.75;;
40555;SDS011;26250;45.422;11.100;2023-04-25T00:22:30;1.13;;;1.02;;
40555;SDS011;26250;45.422;11.100;2023-04-25T00:24:57;0.80;;;0.80;;
40555;SDS011;26250;45.422;11.100;2023-04-25T00:27:26;2.88;;;0.88;;
40555;SDS011;26250;45.422;11.100;2023-04-25T00:29:53;1.05;;;0.80;;
40555;SDS011;26250;45.422;11.100;2023-04-25T00:32:20;0.63;;;0.60;;
40555;SDS011;26250;45.422;11.100;2023-04-25T00:34:47;0.68;;;0.68;;
40555;SDS011;26250;45.422;11.100;2023-04-25T00:37:14;0.50;;;0.50;;
40555;SDS011;26250;45.422;11.100;2023-04-25T00:39:41;2.90;;;0.80;;
40555;SDS011;26250;45.422;11.100;2023-04-25T00:42:08;0.63;;;0.63;;
40555;SDS011;26250;45.422;11.100;2023-04-25T00:44:36;1.33;;;0.88;;
40555;SDS011;26250;45.422;11.100;2023-04-25T00:47:04;1.00;;;0.70;;
40555;SDS011;26250;45.422;11.100;2023-04-25T00:49:31;1.40;;;0.60;;
40555;SDS011;26250;45.422;11.100;2023-04-25T00:51:58;0.68;;;0.65;;
40555;SDS011;26250;45.422;11.100;2023-04-25T00:54:25;0.75;;;0.70;;
40555;SDS011;26250;45.422;11.100;2023-04-25T00:56:52;1.17;;;0.73;;
40555;SDS011;26250;45.422;11.100;2023-04-25T00:59:19;0.60;;;0.60;;
40555;SDS011;26250;45.422;11.100;2023-04-25T01:01:46;0.70;;;0.70;;
40555;SDS011;26250;45.422;11.100;2023-04-25T01:04:14;2.95;;;0.93;;
40555;SDS011;26250;45.422;11.100;2023-04-25T01:06:41;0.60;;;0.60;;
40555;SDS011;26250;45.422;11.100;2023-04-25T01:09:08;0.80;;;0.80;;
40555;SDS011;26250;45.422;11.100;2023-04-25T01:11:36;0.50;;;0.50;;
40555;SDS011;26250;45.422;11.100;2023-04-25T01:14:03;1.13;;;0.77;;
40555;SDS011;26250;45.422;11.100;2023-04-25T01:16:30;1.45;;;0.93;;
40555;SDS011;26250;45.422;11.100;2023-04-25T01:18:59;0.85;;;0.75;;
40555;SDS011;26250;45.422;11.100;2023-04-25T01:21:26;0.80;;;0.80;;
40555;SDS011;26250;45.422;11.100;2023-04-25T01:23:56;0.52;;;0.52;;
40555;SDS011;26250;45.422;11.100;2023-04-25T01:26:23;6.28;;;0.80;;
40555;SDS011;26250;45.422;11.100;2023-04-25T01:28:50;0.80;;;0.80;;
40555;SDS011;26250;45.422;11.100;2023-04-25T01:31:18;1.35;;;0.80;;
40555;SDS011;26250;45.422;11.100;2023-04-25T01:33:46;0.95;;;0.90;;
40555;SDS011;26250;45.422;11.100;2023-04-25T01:36:14;1.02;;;0.98;;
40555;SDS011;26250;45.422;11.100;2023-04-25T01:38:41;1.63;;;1.00;;
40555;SDS011;26250;45.422;11.100;2023-04-25T01:41:10;0.52;;;0.52;;
40555;SDS011;26250;45.422;11.100;2023-04-25T01:43:37;0.47;;;0.47;;
40555;SDS011;26250;45.422;11.100;2023-04-25T01:46:04;0.82;;;0.70;;
40555;SDS011;26250;45.422;11.100;2023-04-25T01:48:32;3.83;;;0.63;;
40555;SDS011;26250;45.422;11.100;2023-04-25T01:50:59;0.73;;;0.70;;
40555;SDS011;26250;45.422;11.100;2023-04-25T01:53:27;12.73;;;0.90;;
40555;SDS011;26250;45.422;11.100;2023-04-25T01:55:56;0.70;;;0.57;;
40555;SDS011;26250;45.422;11.100;2023-04-25T01:58:25;0.50;;;0.50;;
40555;SDS011;26250;45.422;11.100;2023-04-25T02:01:12;0.85;;;0.55;;
40555;SDS011;26250;45.422;11.100;2023-04-25T02:03:45;0.57;;;0.57;;
40555;SDS011;26250;45.422;11.100;2023-04-25T02:06:27;0.57;;;0.57;;
40555;SDS011;26250;45.422;11.100;2023-04-25T02:08:56;0.82;;;0.63;;
40555;SDS011;26250;45.422;11.100;2023-04-25T02:11:23;0.50;;;0.50;;
40555;SDS011;26250;45.422;11.100;2023-04-25T02:14:13;0.60;;;0.60;;
40555;SDS011;26250;45.422;11.100;2023-04-25T02:16:47;0.60;;;0.60;;
40555;SDS011;26250;45.422;11.100;2023-04-25T02:19:14;0.55;;;0.52;;
40555;SDS011;26250;45.422;11.100;2023-04-25T02:21:41;0.82;;;0.70;;
40555;SDS011;26250;45.422;11.100;2023-04-25T02:24:10;0.70;;;0.70;;
40555;SDS011;26250;45.422;11.100;2023-04-25T02:26:37;1.10;;;0.63;;
40555;SDS011;26250;45.422;11.100;2023-04-25T02:29:08;0.70;;;0.70;;
40555;SDS011;26250;45.422;11.100;2023-04-25T02:31:36;0.50;;;0.50;;
40555;SDS011;26250;45.422;11.100;2023-04-25T02:34:03;0.63;;;0.60;;
40555;SDS011;26250;45.422;11.100;2023-04-25T02:36:34;0.50;;;0.50;;
40555;SDS011;26250;45.422;11.100;2023-04-25T02:39:01;0.65;;;0.65;;
40555;SDS011;26250;45.422;11.100;2023-04-25T02:41:29;3.47;;;0.85;;
40555;SDS011;26250;45.422;11.100;2023-04-25T02:43:56;0.50;;;0.50;;
40555;SDS011;26250;45.422;11.100;2023-04-25T02:46:23;2.15;;;0.90;;
40555;SDS011;26250;45.422;11.100;2023-04-25T02:49:04;0.70;;;0.70;;
40555;SDS011;26250;45.422;11.100;2023-04-25T02:51:33;1.75;;;0.77;;
40555;SDS011;26250;45.422;11.100;2023-04-25T02:54:00;0.88;;;0.70;;
40555;SDS011;26250;45.422;11.100;2023-04-25T02:56:31;0.50;;;0.50;;
40555;SDS011;26250;45.422;11.100;2023-04-25T02:58:57;0.70;;;0.70;;
40555;SDS011;26250;45.422;11.100;2023-04-25T03:01:25;0.65;;;0.65;;
40555;SDS011;26250;45.422;11.100;2023-04-25T03:03:52;0.47;;;0.47;;
40555;SDS011;26250;45.422;11.100;2023-04-25T03:06:19;0.60;;;0.60;;
40555;SDS011;26250;45.422;11.100;2023-04-25T03:08:46;1.30;;;0.70;;
40555;SDS011;26250;45.422;11.100;2023-04-25T03:11:14;6.45;;;0.70;;
40555;SDS011;26250;45.422;11.100;2023-04-25T03:13:42;0.65;;;0.63;;
40555;SDS011;26250;45.422;11.100;2023-04-25T03:16:09;0.65;;;0.65;;
40555;SDS011;26250;45.422;11.100;2023-04-25T03:18:37;0.60;;;0.60;;
40555;SDS011;26250;45.422;11.100;2023-04-25T03:21:04;0.50;;;0.50;;
40555;SDS011;26250;45.422;11.100;2023-04-25T03:23:31;0.57;;;0.55;;
40555;SDS011;26250;45.422;11.100;2023-04-25T03:25:58;0.63;;;0.63;;
40555;SDS011;26250;45.422;11.100;2023-04-25T03:28:25;1.38;;;0.80;;
40555;SDS011;26250;45.422;11.100;2023-04-25T03:30:54;0.50;;;0.50;;
40555;SDS011;26250;45.422;11.100;2023-04-25T03:33:21;0.63;;;0.63;;
40555;SDS011;26250;45.422;11.100;2023-04-25T03:35:48;0.68;;;0.65;;
40555;SDS011;26250;45.422;11.100;2023-04-25T03:38:16;2.13;;;0.65;;
40555;SDS011;26250;45.422;11.100;2023-04-25T03:40:45;0.57;;;0.57;;
40555;SDS011;26250;45.422;11.100;2023-04-25T03:43:32;1.05;;;0.85;;
40555;SDS011;26250;45.422;11.100;2023-04-25T03:46:04;2.38;;;0.70;;
40555;SDS011;26250;45.422;11.100;2023-04-25T03:48:31;0.60;;;0.60;;
40555;SDS011;26250;45.422;11.100;2023-04-25T03:50:58;3.75;;;0.70;;
40555;SDS011;26250;45.422;11.100;2023-04-25T03:53:25;0.85;;;0.70;;
40555;SDS011;26250;45.422;11.100;2023-04-25T03:56:13;1.30;;;0.70;;
40555;SDS011;26250;45.422;11.100;2023-04-25T03:58:40;1.95;;;0.70;;
40555;SDS011;26250;45.422;11.100;2023-04-25T04:01:07;0.80;;;0.60;;
40555;SDS011;26250;45.422;11.100;2023-04-25T04:03:37;3.08;;;0.85;;
40555;SDS011;26250;45.422;11.100;2023-04-25T04:06:05;0.65;;;0.63;;
40555;SDS011;26250;45.422;11.100;2023-04-25T04:08:36;1.65;;;0.70;;
40555;SDS011;26250;45.422;11.100;2023-04-25T04:11:03;0.68;;;0.68;;
40555;SDS011;26250;45.422;11.100;2023-04-25T04:13:31;0.65;;;0.65;;
40555;SDS011;26250;45.422;11.100;2023-04-25T04:15:59;0.65;;;0.65;;
40555;SDS011;26250;45.422;11.100;2023-04-25T04:18:26;1.00;;;0.73;;
40555;SDS011;26250;45.422;11.100;2023-04-25T04:20:55;1.40;;;0.80;;
40555;SDS011;26250;45.422;11.100;2023-04-25T04:23:26;0.65;;;0.65;;
40555;SDS011;26250;45.422;11.100;2023-04-25T04:25:55;2.28;;;1.00;;
40555;SDS011;26250;45.422;11.100;2023-04-25T04:28:54;0.60;;;0.60;;
40555;SDS011;26250;45.422;11.100;2023-04-25T04:31:35;0.63;;;0.63;;
40555;SDS011;26250;45.422;11.100;2023-04-25T04:34:02;1.02;;;0.75;;
40555;SDS011;26250;45.422;11.100;2023-04-25T04:36:30;0.82;;;0.70;;
40555;SDS011;26250;45.422;11.100;2023-04-25T04:38:57;0.60;;;0.60;;
40555;SDS011;26250;45.422;11.100;2023-04-25T04:41:34;0.80;;;0.80;;
40555;SDS011;26250;45.422;11.100;2023-04-25T04:47:24;1.63;;;0.98;;
40555;SDS011;26250;45.422;11.100;2023-04-25T04:50:15;1.40;;;0.80;;
40555;SDS011;26250;45.422;11.100;2023-04-25T04:53:01;0.70;;;0.70;;
40555;SDS011;26250;45.422;11.100;2023-04-25T04:55:40;0.70;;;0.70;;
40555;SDS011;26250;45.422;11.100;2023-04-25T04:58:27;0.68;;;0.68;;
40555;SDS011;26250;45.422;11.100;2023-04-25T05:01:10;0.70;;;0.70;;
40555;SDS011;26250;45.422;11.100;2023-04-25T05:03:54;1.25;;;0.70;;
40555;SDS011;26250;45.422;11.100;2023-04-25T05:06:59;0.95;;;0.77;;
40555;SDS011;26250;45.422;11.100;2023-04-25T05:09:41;1.00;;;0.85;;
40555;SDS011;26250;45.422;11.100;2023-04-25T05:12:36;5.55;;;0.80;;
40555;SDS011;26250;45.422;11.100;2023-04-25T05:17:58;0.60;;;0.60;;
40555;SDS011;26250;45.422;11.100;2023-04-25T05:20:33;0.82;;;0.82;;
40555;SDS011;26250;45.422;11.100;2023-04-25T05:23:00;0.65;;;0.65;;
40555;SDS011;26250;45.422;11.100;2023-04-25T05:28:30;2.22;;;1.45;;
40555;SDS011;26250;45.422;11.100;2023-04-25T05:31:10;51.20;;;3.78;;
40555;SDS011;26250;45.422;11.100;2023-04-25T05:33:57;5.18;;;2.80;;
40555;SDS011;26250;45.422;11.100;2023-04-25T05:36:34;8.32;;;3.70;;
40555;SDS011;26250;45.422;11.100;2023-04-25T05:39:01;5.65;;;2.58;;
40555;SDS011;26250;45.422;11.100;2023-04-25T05:41:52;3.03;;;2.00;;
40555;SDS011;26250;45.422;11.100;2023-04-25T05:44:45;5.35;;;2.85;;
40555;SDS011;26250;45.422;11.100;2023-04-25T05:47:27;1.83;;;1.42;;
40555;SDS011;26250;45.422;11.100;2023-04-25T05:50:04;4.05;;;1.75;;
40555;SDS011;26250;45.422;11.100;2023-04-25T05:52:52;2.05;;;1.25;;
40555;SDS011;26250;45.422;11.100;2023-04-25T05:55:24;9.50;;;2.88;;
40555;SDS011;26250;45.422;11.100;2023-04-25T05:57:51;3.53;;;2.42;;
40555;SDS011;26250;45.422;11.100;2023-04-25T06:00:18;2.83;;;1.92;;
40555;SDS011;26250;45.422;11.100;2023-04-25T06:02:48;1.00;;;0.90;;
40555;SDS011;26250;45.422;11.100;2023-04-25T06:05:16;1.15;;;1.05;;
40555;SDS011;26250;45.422;11.100;2023-04-25T06:07:45;3.38;;;0.80;;
40555;SDS011;26250;45.422;11.100;2023-04-25T06:10:13;3.20;;;0.98;;
40555;SDS011;26250;45.422;11.100;2023-04-25T06:12:41;1.55;;;0.98;;
40555;SDS011;26250;45.422;11.100;2023-04-25T06:15:08;1.50;;;0.90;;
40555;SDS011;26250;45.422;11.100;2023-04-25T06:17:52;0.57;;;0.57;;
40555;SDS011;26250;45.422;11.100;2023-04-25T06:20:19;0.93;;;0.85;;
40555;SDS011;26250;45.422;11.100;2023-04-25T06:22:50;0.70;;;0.70;;
40555;SDS011;26250;45.422;11.100;2023-04-25T06:25:20;1.20;;;0.95;;
40555;SDS011;26250;45.422;11.100;2023-04-25T06:27:47;1.02;;;0.65;;
40555;SDS011;26250;45.422;11.100;2023-04-25T06:30:15;1.75;;;1.08;;
40555;SDS011;26250;45.422;11.100;2023-04-25T06:32:44;1.05;;;0.77;;
40555;SDS011;26250;45.422;11.100;2023-04-25T06:35:11;0.47;;;0.47;;
40555;SDS011;26250;45.422;11.100;2023-04-25T06:37:39;0.70;;;0.70;;
40555;SDS011;26250;45.422;11.100;2023-04-25T06:40:07;0.60;;;0.60;;
40555;SDS011;26250;45.422;11.100;2023-04-25T06:42:34;0.50;;;0.50;;
40555;SDS011;26250;45.422;11.100;2023-04-25T06:45:21;0.70;;;0.70;;
40555;SDS011;26250;45.422;11.100;2023-04-25T06:47:48;0.70;;;0.70;;
40555;SDS011;26250;45.422;11.100;2023-04-25T06:50:16;0.68;;;0.68;;
40555;SDS011;26250;45.422;11.100;2023-04-25T06:52:43;0.80;;;0.80;;
40555;SDS011;26250;45.422;11.100;2023-04-25T06:55:10;1.15;;;1.05;;
40555;SDS011;26250;45.422;11.100;2023-04-25T06:58:04;0.70;;;0.70;;
40555;SDS011;26250;45.422;11.100;2023-04-25T07:00:50;0.63;;;0.63;;
40555;SDS011;26250;45.422;11.100;2023-04-25T07:03:19;0.70;;;0.70;;
40555;SDS011;26250;45.422;11.100;2023-04-25T07:05:47;1.80;;;0.90;;
40555;SDS011;26250;45.422;11.100;2023-04-25T07:08:14;2.25;;;1.10;;
40555;SDS011;26250;45.422;11.100;2023-04-25T07:10:41;0.80;;;0.80;;
40555;SDS011;26250;45.422;11.100;2023-04-25T07:13:08;0.93;;;0.93;;
40555;SDS011;26250;45.422;11.100;2023-04-25T07:15:35;0.88;;;0.88;;
40555;SDS011;26250;45.422;11.100;2023-04-25T07:18:03;0.73;;;0.73;;
40555;SDS011;26250;45.422;11.100;2023-04-25T07:20:30;0.80;;;0.80;;
40555;SDS011;26250;45.422;11.100;2023-04-25T07:22:58;1.40;;;1.05;;
40555;SDS011;26250;45.422;11.100;2023-04-25T07:25:25;0.60;;;0.60;;
40555;SDS011;26250;45.422;11.100;2023-04-25T07:27:53;2.25;;;1.10;;
40555;SDS011;26250;45.422;11.100;2023-04-25T07:30:20;2.50;;;1.42;;
40555;SDS011;26250;45.422;11.100;2023-04-25T07:32:47;1.02;;;1.00;;
40555;SDS011;26250;45.422;11.100;2023-04-25T07:35:15;2.13;;;1.15;;
40555;SDS011;26250;45.422;11.100;2023-04-25T07:37:43;1.58;;;0.98;;
40555;SDS011;26250;45.422;11.100;2023-04-25T07:40:13;0.70;;;0.70;;
40555;SDS011;26250;45.422;11.100;2023-04-25T07:42:47;0.52;;;0.52;;
40555;SDS011;26250;45.422;11.100;2023-04-25T07:45:19;1.25;;;0.73;;
40555;SDS011;26250;45.422;11.100;2023-04-25T07:47:46;0.80;;;0.80;;
40555;SDS011;26250;45.422;11.100;2023-04-25T07:50:13;0.77;;;0.77;;
40555;SDS011;26250;45.422;11.100;2023-04-25T07:52:40;4.97;;;1.17;;
40555;SDS011;26250;45.422;11.100;2023-04-25T07:55:22;4.43;;;1.08;;
40555;SDS011;26250;45.422;11.100;2023-04-25T07:57:58;1.05;;;1.00;;
40555;SDS011;26250;45.422;11.100;2023-04-25T08:00:28;0.80;;;0.80;;
40555;SDS011;26250;45.422;11.100;2023-04-25T08:03:15;1.13;;;0.82;;
40555;SDS011;26250;45.422;11.100;2023-04-25T08:05:43;3.33;;;1.05;;
40555;SDS011;26250;45.422;11.100;2023-04-25T08:08:11;0.70;;;0.70;;
40555;SDS011;26250;45.422;11.100;2023-04-25T08:10:39;1.15;;;1.10;;
40555;SDS011;26250;45.422;11.100;2023-04-25T08:13:07;1.00;;;1.00;;
40555;SDS011;26250;45.422;11.100;2023-04-25T08:15:35;1.30;;;0.95;;
40555;SDS011;26250;45.422;11.100;2023-04-25T08:18:03;1.88;;;0.93;;
40555;SDS011;26250;45.422;11.100;2023-04-25T08:20:30;0.88;;;0.80;;
40555;SDS011;26250;45.422;11.100;2023-04-25T08:23:03;10.23;;;1.05;;
40555;SDS011;26250;45.422;11.100;2023-04-25T08:25:50;7.22;;;0.88;;
40555;SDS011;26250;45.422;11.100;2023-04-25T08:28:21;1.17;;;1.05;;
40555;SDS011;26250;45.422;11.100;2023-04-25T08:30:48;0.70;;;0.70;;
40555;SDS011;26250;45.422;11.100;2023-04-25T08:33:16;0.93;;;0.88;;
40555;SDS011;26250;45.422;11.100;2023-04-25T08:35:44;0.80;;;0.80;;
40555;SDS011;26250;45.422;11.100;2023-04-25T08:38:13;0.73;;;0.73;;
40555;SDS011;26250;45.422;11.100;2023-04-25T08:40:40;0.80;;;0.80;;
40555;SDS011;26250;45.422;11.100;2023-04-25T08:43:13;0.90;;;0.90;;
40555;SDS011;26250;45.422;11.100;2023-04-25T08:45:41;0.82;;;0.80;;
40555;SDS011;26250;45.422;11.100;2023-04-25T08:48:15;0.65;;;0.65;;
40555;SDS011;26250;45.422;11.100;2023-04-25T08:50:45;0.70;;;0.70;;
40555;SDS011;26250;45.422;11.100;2023-04-25T08:53:12;0.80;;;0.80;;
40555;SDS011;26250;45.422;11.100;2023-04-25T08:55:46;0.68;;;0.68;;
40555;SDS011;26250;45.422;11.100;2023-04-25T08:58:13;1.95;;;0.75;;
40555;SDS011;26250;45.422;11.100;2023-04-25T09:00:40;0.70;;;0.70;;
40555;SDS011;26250;45.422;11.100;2023-04-25T09:03:08;0.68;;;0.68;;
40555;SDS011;26250;45.422;11.100;2023-04-25T09:05:37;0.77;;;0.77;;
40555;SDS011;26250;45.422;11.100;2023-04-25T09:08:07;1.42;;;1.20;;
40555;SDS011;26250;45.422;11.100;2023-04-25T09:10:34;1.05;;;0.85;;
40555;SDS011;26250;45.422;11.100;2023-04-25T09:15:55;0.60;;;0.60;;
40555;SDS011;26250;45.422;11.100;2023-04-25T09:18:41;4.90;;;0.93;;
40555;SDS011;26250;45.422;11.100;2023-04-25T09:21:14;0.82;;;0.80;;
40555;SDS011;26250;45.422;11.100;2023-04-25T09:23:45;0.80;;;0.80;;
40555;SDS011;26250;45.422;11.100;2023-04-25T09:26:14;0.80;;;0.80;;
40555;SDS011;26250;45.422;11.100;2023-04-25T09:28:46;1.50;;;0.80;;
40555;SDS011;26250;45.422;11.100;2023-04-25T09:31:23;0.70;;;0.70;;
40555;SDS011;26250;45.422;11.100;2023-04-25T09:33:58;1.35;;;0.90;;
40555;SDS011;26250;45.422;11.100;2023-04-25T09:36:33;0.80;;;0.80;;
40555;SDS011;26250;45.422;11.100;2023-04-25T09:39:15;0.77;;;0.77;;
40555;SDS011;26250;45.422;11.100;2023-04-25T09:41:53;0.70;;;0.70;;
40555;SDS011;26250;45.422;11.100;2023-04-25T09:44:24;1.40;;;0.70;;
40555;SDS011;26250;45.422;11.100;2023-04-25T09:46:53;0.95;;;0.95;;
40555;SDS011;26250;45.422;11.100;2023-04-25T09:49:24;0.70;;;0.70;;
40555;SDS011;26250;45.422;11.100;2023-04-25T09:52:02;1.17;;;1.17;;
40555;SDS011;26250;45.422;11.100;2023-04-25T09:54:39;1.13;;;1.13;;
40555;SDS011;26250;45.422;11.100;2023-04-25T09:57:16;10.00;;;1.90;;
40555;SDS011;26250;45.422;11.100;2023-04-25T09:59:46;3.33;;;0.50;;
40555;SDS011;26250;45.422;11.100;2023-04-25T10:02:18;0.83;;;0.83;;
40555;SDS011;26250;45.422;11.100;2023-04-25T10:04:52;3.38;;;3.08;;
40555;SDS011;26250;45.422;11.100;2023-04-25T10:07:26;2.47;;;2.20;;
40555;SDS011;26250;45.422;11.100;2023-04-25T10:09:59;2.78;;;2.58;;
40555;SDS011;26250;45.422;11.100;2023-04-25T10:12:29;6.40;;;2.00;;
40555;SDS011;26250;45.422;11.100;2023-04-25T10:15:00;2.60;;;1.90;;
40555;SDS011;26250;45.422;11.100;2023-04-25T10:17:29;1.48;;;1.15;;
40555;SDS011;26250;45.422;11.100;2023-04-25T10:19:57;0.65;;;0.65;;
40555;SDS011;26250;45.422;11.100;2023-04-25T10:24:59;2.08;;;1.00;;
40555;SDS011;26250;45.422;11.100;2023-04-25T10:27:30;1.42;;;1.23;;
40555;SDS011;26250;45.422;11.100;2023-04-25T10:30:01;0.90;;;0.90;;
40555;SDS011;26250;45.422;11.100;2023-04-25T10:32:36;1.33;;;1.08;;
40555;SDS011;26250;45.422;11.100;2023-04-25T10:35:10;4.30;;;0.82;;
40555;SDS011;26250;45.422;11.100;2023-04-25T10:37:37;3.53;;;1.55;;
40555;SDS011;26250;45.422;11.100;2023-04-25T10:40:09;2.53;;;2.05;;
40555;SDS011;26250;45.422;11.100;2023-04-25T10:42:37;1.02;;;1.00;;
40555;SDS011;26250;45.422;11.100;2023-04-25T10:45:07;1.63;;;1.52;;
40555;SDS011;26250;45.422;11.100;2023-04-25T10:47:35;1.52;;;1.42;;
40555;SDS011;26250;45.422;11.100;2023-04-25T10:50:06;0.70;;;0.70;;
40555;SDS011;26250;45.422;11.100;2023-04-25T10:52:34;4.10;;;1.30;;
40555;SDS011;26250;45.422;11.100;2023-04-25T10:55:04;1.48;;;1.38;;
40555;SDS011;26250;45.422;11.100;2023-04-25T10:57:36;1.33;;;1.23;;
40555;SDS011;26250;45.422;11.100;2023-04-25T11:00:14;2.67;;;1.25;;
40555;SDS011;26250;45.422;11.100;2023-04-25T11:02:46;1.95;;;1.10;;
40555;SDS011;26250;45.422;11.100;2023-04-25T11:08:16;3.75;;;1.30;;
40555;SDS011;26250;45.422;11.100;2023-04-25T11:10:59;1.23;;;1.13;;
40555;SDS011;26250;45.422;11.100;2023-04-25T11:13:29;0.80;;;0.80;;
40555;SDS011;26250;45.422;11.100;2023-04-25T11:15:56;1.33;;;1.20;;
40555;SDS011;26250;45.422;11.100;2023-04-25T11:18:40;2.78;;;1.50;;
40555;SDS011;26250;45.422;11.100;2023-04-25T11:21:08;2.05;;;1.58;;
40555;SDS011;26250;45.422;11.100;2023-04-25T11:23:35;0.95;;;0.95;;
40555;SDS011;26250;45.422;11.100;2023-04-25T11:26:03;1.10;;;1.05;;
40555;SDS011;26250;45.422;11.100;2023-04-25T11:28:31;1.95;;;0.95;;
40555;SDS011;26250;45.422;11.100;2023-04-25T11:30:58;1.85;;;1.20;;
40555;SDS011;26250;45.422;11.100;2023-04-25T11:33:25;1.02;;;1.02;;
40555;SDS011;26250;45.422;11.100;2023-04-25T11:35:54;1.45;;;1.13;;
40555;SDS011;26250;45.422;11.100;2023-04-25T11:38:24;0.80;;;0.80;;
40555;SDS011;26250;45.422;11.100;2023-04-25T11:40:54;0.95;;;0.90;;
40555;SDS011;26250;45.422;11.100;2023-04-25T11:43:22;1.05;;;0.82;;
40555;SDS011;26250;45.422;11.100;2023-04-25T11:45:49;1.08;;;1.02;;
40555;SDS011;26250;45.422;11.100;2023-04-25T11:48:19;1.67;;;1.13;;
40555;SDS011;26250;45.422;11.100;2023-04-25T11:51:06;4.55;;;1.88;;
40555;SDS011;26250;45.422;11.100;2023-04-25T11:53:33;4.00;;;1.92;;
40555;SDS011;26250;45.422;11.100;2023-04-25T11:56:01;1.63;;;1.52;;
40555;SDS011;26250;45.422;11.100;2023-04-25T11:58:53;1.15;;;1.15;;
40555;SDS011;26250;45.422;11.100;2023-04-25T12:04:17;0.85;;;0.85;;
40555;SDS011;26250;45.422;11.100;2023-04-25T12:06:46;1.35;;;0.93;;
40555;SDS011;26250;45.422;11.100;2023-04-25T12:09:15;1.33;;;1.23;;
40555;SDS011;26250;45.422;11.100;2023-04-25T12:11:48;2.03;;;1.45;;
40555;SDS011;26250;45.422;11.100;2023-04-25T12:14:23;4.07;;;1.50;;
40555;SDS011;26250;45.422;11.100;2023-04-25T12:16:55;1.00;;;1.00;;
40555;SDS011;26250;45.422;11.100;2023-04-25T12:19:24;0.82;;;0.82;;
40555;SDS011;26250;45.422;11.100;2023-04-25T12:21:52;1.50;;;1.40;;
40555;SDS011;26250;45.422;11.100;2023-04-25T12:24:25;1.30;;;1.20;;
40555;SDS011;26250;45.422;11.100;2023-04-25T12:27:04;1.20;;;1.10;;
40555;SDS011;26250;45.422;11.100;2023-04-25T12:29:32;1.17;;;1.13;;
40555;SDS011;26250;45.422;11.100;2023-04-25T12:32:14;1.83;;;1.40;;
40555;SDS011;26250;45.422;11.100;2023-04-25T12:34:41;2.67;;;1.13;;
40555;SDS011;26250;45.422;11.100;2023-04-25T12:37:09;3.00;;;1.10;;
40555;SDS011;26250;45.422;11.100;2023-04-25T12:39:36;4.05;;;1.23;;
40555;SDS011;26250;45.422;11.100;2023-04-25T12:42:03;1.02;;;1.02;;
40555;SDS011;26250;45.422;11.100;2023-04-25T12:44:34;1.08;;;0.98;;
40555;SDS011;26250;45.422;11.100;2023-04-25T12:47:01;1.48;;;1.38;;
40555;SDS011;26250;45.422;11.100;2023-04-25T12:49:29;1.20;;;1.10;;
40555;SDS011;26250;45.422;11.100;2023-04-25T12:51:56;1.35;;;1.25;;
40555;SDS011;26250;45.422;11.100;2023-04-25T12:54:24;1.25;;;1.15;;
40555;SDS011;26250;45.422;11.100;2023-04-25T12:56:52;2.15;;;1.15;;
40555;SDS011;26250;45.422;11.100;2023-04-25T12:59:19;2.50;;;1.73;;
40555;SDS011;26250;45.422;11.100;2023-04-25T13:01:47;1.30;;;1.20;;
40555;SDS011;26250;45.422;11.100;2023-04-25T13:04:14;2.22;;;1.27;;
40555;SDS011;26250;45.422;11.100;2023-04-25T13:06:42;1.33;;;1.20;;
40555;SDS011;26250;45.422;11.100;2023-04-25T13:09:09;2.00;;;1.60;;
40555;SDS011;26250;45.422;11.100;2023-04-25T13:11:38;2.88;;;1.77;;
40555;SDS011;26250;45.422;11.100;2023-04-25T13:14:07;1.70;;;1.60;;
40555;SDS011;26250;45.422;11.100;2023-04-25T13:16:34;2.92;;;1.88;;
40555;SDS011;26250;45.422;11.100;2023-04-25T13:19:01;1.50;;;1.40;;
40555;SDS011;26250;45.422;11.100;2023-04-25T13:21:29;4.88;;;1.55;;
40555;SDS011;26250;45.422;11.100;2023-04-25T13:23:58;1.50;;;1.40;;
40555;SDS011;26250;45.422;11.100;2023-04-25T13:26:25;2.10;;;1.77;;
40555;SDS011;26250;45.422;11.100;2023-04-25T13:28:52;2.78;;;1.55;;
40555;SDS011;26250;45.422;11.100;2023-04-25T13:31:19;2.58;;;1.67;;
40555;SDS011;26250;45.422;11.100;2023-04-25T13:33:47;3.53;;;1.98;;
40555;SDS011;26250;45.422;11.100;2023-04-25T13:36:14;4.40;;;1.73;;
40555;SDS011;26250;45.422;11.100;2023-04-25T13:38:41;4.43;;;1.98;;
40555;SDS011;26250;45.422;11.100;2023-04-25T13:41:10;2.22;;;1.80;;
40555;SDS011;26250;45.422;11.100;2023-04-25T13:43:41;5.35;;;1.75;;
40555;SDS011;26250;45.422;11.100;2023-04-25T13:46:08;1.38;;;1.27;;
40555;SDS011;26250;45.422;11.100;2023-04-25T13:48:56;1.40;;;1.30;;
40555;SDS011;26250;45.422;11.100;2023-04-25T13:51:35;2.20;;;1.40;;
40555;SDS011;26250;45.422;11.100;2023-04-25T13:54:02;2.30;;;2.10;;
40555;SDS011;26250;45.422;11.100;2023-04-25T13:56:29;4.78;;;2.25;;
40555;SDS011;26250;45.422;11.100;2023-04-25T13:58:56;5.28;;;2.47;;
40555;SDS011;26250;45.422;11.100;2023-04-25T14:01:23;2.42;;;1.70;;
40555;SDS011;26250;45.422;11.100;2023-04-25T14:03:50;3.03;;;2.10;;
40555;SDS011;26250;45.422;11.100;2023-04-25T14:06:17;2.35;;;2.00;;
40555;SDS011;26250;45.422;11.100;2023-04-25T14:08:52;3.92;;;2.30;;
40555;SDS011;26250;45.422;11.100;2023-04-25T14:11:19;2.65;;;2.03;;
40555;SDS011;26250;45.422;11.100;2023-04-25T14:13:46;2.00;;;1.90;;
40555;SDS011;26250;45.422;11.100;2023-04-25T14:16:15;2.70;;;1.85;;
40555;SDS011;26250;45.422;11.100;2023-04-25T14:18:43;5.45;;;2.20;;
40555;SDS011;26250;45.422;11.100;2023-04-25T14:21:10;2.10;;;1.58;;
40555;SDS011;26250;45.422;11.100;2023-04-25T14:23:37;5.05;;;1.85;;
40555;SDS011;26250;45.422;11.100;2023-04-25T14:26:04;3.60;;;1.38;;
40555;SDS011;26250;45.422;11.100;2023-04-25T14:28:31;2.38;;;1.88;;
40555;SDS011;26250;45.422;11.100;2023-04-25T14:30:58;2.72;;;1.40;;
40555;SDS011;26250;45.422;11.100;2023-04-25T14:33:25;1.80;;;1.48;;
40555;SDS011;26250;45.422;11.100;2023-04-25T14:35:52;5.15;;;2.05;;
40555;SDS011;26250;45.422;11.100;2023-04-25T14:38:19;1.80;;;1.70;;
40555;SDS011;26250;45.422;11.100;2023-04-25T14:40:49;3.88;;;2.22;;
40555;SDS011;26250;45.422;11.100;2023-04-25T14:43:16;11.18;;;2.15;;
40555;SDS011;26250;45.422;11.100;2023-04-25T14:45:43;2.70;;;1.98;;
40555;SDS011;26250;45.422;11.100;2023-04-25T14:48:10;2.67;;;1.73;;
40555;SDS011;26250;45.422;11.100;2023-04-25T14:50:37;3.40;;;2.33;;
40555;SDS011;26250;45.422;11.100;2023-04-25T14:53:05;6.00;;;2.75;;
40555;SDS011;26250;45.422;11.100;2023-04-25T14:55:31;2.30;;;2.10;;
40555;SDS011;26250;45.422;11.100;2023-04-25T14:57:58;2.33;;;2.20;;
40555;SDS011;26250;45.422;11.100;2023-04-25T15:00:26;2.55;;;2.35;;
40555;SDS011;26250;45.422;11.100;2023-04-25T15:02:53;2.92;;;2.13;;
40555;SDS011;26250;45.422;11.100;2023-04-25T15:05:20;3.40;;;2.05;;
40555;SDS011;26250;45.422;11.100;2023-04-25T15:07:47;1.85;;;1.75;;
40555;SDS011;26250;45.422;11.100;2023-04-25T15:10:14;3.25;;;2.20;;
40555;SDS011;26250;45.422;11.100;2023-04-25T15:12:43;2.10;;;1.63;;